createdAt,value
2022-08-16T00:01:43.941Z,25.20
2022-08-16T00:04:13.651Z,25.24
2022-08-16T00:06:45.685Z,25.25
2022-08-16T00:09:14.757Z,25.26
2022-08-16T00:11:44.708Z,25.22
2022-08-16T00:14:17.745Z,25.20
2022-08-16T00:17:05.987Z,25.24
2022-08-16T00:19:41.490Z,24.82
2022-08-16T00:22:13.679Z,24.96
2022-08-16T00:24:44.758Z,24.97
2022-08-16T00:27:15.744Z,25.01
2022-08-16T00:29:46.157Z,24.95
2022-08-16T00:32:18.022Z,24.79
2022-08-16T00:34:52.918Z,24.87
2022-08-16T00:37:57.951Z,25.06
2022-08-16T00:40:34.028Z,25.16
2022-08-16T00:43:11.658Z,25.01
2022-08-16T00:46:00.257Z,24.99
2022-08-16T00:48:43.757Z,25.03
2022-08-16T00:51:16.154Z,25.12
2022-08-16T00:53:47.594Z,25.21
2022-08-16T00:56:51.880Z,25.21
2022-08-16T00:59:11.186Z,25.28
2022-08-16T01:01:45.754Z,25.20
2022-08-16T01:04:29.372Z,25.08
2022-08-16T01:07:02.289Z,25.14
2022-08-16T01:09:34.353Z,25.10
2022-08-16T01:12:10.650Z,24.57
2022-08-16T01:14:45.245Z,24.05
2022-08-16T01:17:19.066Z,23.91
2022-08-16T01:19:56.980Z,24.30
2022-08-16T01:22:57.645Z,24.04
2022-08-16T01:25:33.704Z,23.19
2022-08-16T01:28:04.908Z,23.72
2022-08-16T01:30:40.173Z,23.75
2022-08-16T01:33:22.373Z,23.36
2022-08-16T01:35:56.217Z,23.68
2022-08-16T01:38:28.492Z,24.15
2022-08-16T01:41:02.003Z,23.28
2022-08-16T01:43:32.790Z,23.87
2022-08-16T01:46:37.314Z,23.52
2022-08-16T01:48:57.360Z,23.73
2022-08-16T01:51:28.319Z,23.14
2022-08-16T01:53:57.442Z,23.04
2022-08-16T01:56:29.414Z,23.36
2022-08-16T01:59:00.990Z,22.77
2022-08-16T02:01:30.406Z,23.45
2022-08-16T02:04:10.220Z,23.85
2022-08-16T02:06:46.636Z,24.08
2022-08-16T02:09:17.685Z,24.09
2022-08-16T02:11:56.587Z,24.33
2022-08-16T02:14:29.681Z,24.15
2022-08-16T02:17:01.550Z,24.35
2022-08-16T02:19:58.410Z,24.16
2022-08-16T02:22:34.049Z,23.59
2022-08-16T02:25:09.951Z,23.08
2022-08-16T02:27:41.746Z,22.63
2022-08-16T02:30:35.864Z,22.21
2022-08-16T02:33:07.578Z,22.97
2022-08-16T02:35:49.678Z,23.44
2022-08-16T02:38:23.334Z,23.43
2022-08-16T02:40:54.448Z,23.00
2022-08-16T02:43:26.445Z,23.26
2022-08-16T02:45:55.645Z,23.92
2022-08-16T02:48:30.333Z,23.59
2022-08-16T02:51:10.709Z,23.57
2022-08-16T02:53:43.856Z,23.31
2022-08-16T02:56:15.631Z,23.25
2022-08-16T02:58:47.868Z,23.95
2022-08-16T03:01:24.766Z,24.04
2022-08-16T03:04:41.106Z,24.38
2022-08-16T03:06:56.869Z,23.78
2022-08-16T03:09:28.760Z,23.94
2022-08-16T03:11:58.859Z,24.11
2022-08-16T03:14:31.096Z,23.65
2022-08-16T03:17:01.895Z,23.54
2022-08-16T03:19:48.028Z,23.54
2022-08-16T03:22:28.723Z,23.91
2022-08-16T03:25:01.221Z,24.17
2022-08-16T03:27:32.226Z,24.08
2022-08-16T03:30:16.059Z,23.92
2022-08-16T03:32:47.053Z,23.56
2022-08-16T03:35:17.543Z,23.99
2022-08-16T03:38:01.720Z,23.78
2022-08-16T03:40:33.261Z,24.20
2022-08-16T03:43:20.160Z,24.26
2022-08-16T03:45:53.226Z,24.19
2022-08-16T03:48:36.880Z,23.93
2022-08-16T03:51:12.986Z,23.19
2022-08-16T03:53:42.745Z,23.35
2022-08-16T03:56:19.858Z,22.15
2022-08-16T03:58:51.154Z,21.96
2022-08-16T04:01:23.485Z,22.05
2022-08-16T04:03:52.836Z,21.68
2022-08-16T04:06:23.770Z,21.64
2022-08-16T04:08:52.702Z,21.82
2022-08-16T04:11:23.850Z,21.65
2022-08-16T04:13:59.891Z,21.49
2022-08-16T04:16:37.136Z,22.09
2022-08-16T04:19:05.825Z,22.67
2022-08-16T04:21:35.501Z,23.14
2022-08-16T04:24:07.763Z,23.02
2022-08-16T04:26:37.283Z,22.28
2022-08-16T04:29:23.498Z,22.60
2022-08-16T04:31:57.877Z,23.22
2022-08-16T04:34:29.476Z,22.47
2022-08-16T04:37:01.399Z,22.71
2022-08-16T04:39:44.967Z,22.22
2022-08-16T04:42:16.097Z,22.64
2022-08-16T04:44:53.590Z,22.55
2022-08-16T04:47:33.165Z,22.63
2022-08-16T04:50:06.128Z,21.59
2022-08-16T04:52:37.117Z,22.76
2022-08-16T04:55:09.455Z,22.80
2022-08-16T04:57:39.098Z,22.16
2022-08-16T05:00:30.494Z,21.78
2022-08-16T05:03:07.133Z,20.99
2022-08-16T05:05:44.969Z,22.06
2022-08-16T05:08:28.909Z,22.28
2022-08-16T05:11:00.269Z,22.59
2022-08-16T05:13:41.092Z,22.16
2022-08-16T05:16:20.154Z,22.43
2022-08-16T05:18:56.546Z,22.25
2022-08-16T05:21:26.824Z,21.34
2022-08-16T05:24:00.307Z,22.19
2022-08-16T05:26:32.979Z,23.26
2022-08-16T05:29:04.440Z,22.89
2022-08-16T05:31:35.051Z,23.31
2022-08-16T05:34:05.813Z,23.92
2022-08-16T05:36:51.196Z,24.12
2022-08-16T05:39:20.896Z,24.09
2022-08-16T05:41:52.082Z,23.99
2022-08-16T05:44:24.274Z,24.03
2022-08-16T05:46:55.029Z,23.94
2022-08-16T05:49:39.937Z,25.79
2022-08-16T05:52:11.225Z,25.91
2022-08-16T05:54:47.683Z,25.62
2022-08-16T05:57:18.298Z,25.32
2022-08-16T05:59:50.526Z,26.54
2022-08-16T06:02:33.372Z,25.06
2022-08-16T06:05:04.194Z,23.99
2022-08-16T06:07:32.904Z,24.15
2022-08-16T06:10:02.994Z,24.56
2022-08-16T06:12:32.673Z,24.33
2022-08-16T06:15:04.430Z,24.52
2022-08-16T06:17:45.957Z,24.80
2022-08-16T06:20:18.104Z,24.07
2022-08-16T06:23:02.767Z,24.57
2022-08-16T06:25:36.502Z,24.74
2022-08-16T06:28:10.218Z,25.37
2022-08-16T06:30:43.559Z,25.90
2022-08-16T06:33:19.650Z,25.00
2022-08-16T06:35:55.318Z,25.63
2022-08-16T06:38:33.386Z,26.47
2022-08-16T06:41:05.421Z,26.43
2022-08-16T06:43:35.090Z,26.33
2022-08-16T06:46:09.894Z,24.23
2022-08-16T06:48:42.926Z,25.44
2022-08-16T06:51:11.862Z,25.23
2022-08-16T06:53:43.550Z,24.55
2022-08-16T06:56:14.495Z,25.85
2022-08-16T06:58:52.977Z,25.37
2022-08-16T07:01:46.102Z,25.42
2022-08-16T07:04:12.216Z,26.32
2022-08-16T07:06:43.038Z,26.55
2022-08-16T07:09:12.861Z,26.94
2022-08-16T07:11:46.235Z,26.45
2022-08-16T07:14:24.584Z,25.64
2022-08-16T07:16:59.005Z,25.51
2022-08-16T07:20:01.765Z,26.15
2022-08-16T07:22:38.731Z,25.54
2022-08-16T07:25:11.766Z,26.85
2022-08-16T07:27:40.834Z,26.98
2022-08-16T07:30:38.849Z,26.22
2022-08-16T07:33:03.468Z,25.84
2022-08-16T07:35:34.309Z,26.11
2022-08-16T07:38:02.954Z,26.91
2022-08-16T07:40:59.246Z,28.38
2022-08-16T07:43:20.620Z,28.41
2022-08-16T07:45:52.875Z,29.68
2022-08-16T07:48:22.267Z,27.77
2022-08-16T07:50:59.186Z,27.18
2022-08-16T07:53:30.549Z,26.31
2022-08-16T07:56:01.199Z,27.00
2022-08-16T07:58:36.353Z,26.58
2022-08-16T08:01:10.525Z,27.40
2022-08-16T08:03:49.103Z,27.02
2022-08-16T08:06:21.168Z,26.60
2022-08-16T08:08:57.239Z,26.80
2022-08-16T08:11:28.630Z,28.13
2022-08-16T08:14:02.975Z,28.53
2022-08-16T08:16:33.369Z,29.27
2022-08-16T08:19:04.782Z,27.97
2022-08-16T08:21:58.325Z,28.84
2022-08-16T08:24:32.209Z,29.88
2022-08-16T08:27:04.265Z,29.76
2022-08-16T08:29:37.636Z,29.80
2022-08-16T08:32:59.930Z,28.89
2022-08-16T08:35:03.206Z,26.59
2022-08-16T08:37:55.799Z,29.57
2022-08-16T08:40:26.586Z,29.37
2022-08-16T08:42:57.888Z,26.81
2022-08-16T08:45:47.128Z,26.58
2022-08-16T08:48:33.441Z,26.40
2022-08-16T08:51:05.925Z,27.85
2022-08-16T08:53:39.856Z,27.22
2022-08-16T08:56:23.587Z,27.50
2022-08-16T08:58:59.945Z,28.27
2022-08-16T09:01:36.582Z,28.12
2022-08-16T09:04:14.310Z,27.69
2022-08-16T09:06:45.881Z,28.46
2022-08-16T09:09:16.927Z,28.40
2022-08-16T09:11:52.717Z,29.63
2022-08-16T09:14:27.339Z,30.38
2022-08-16T09:17:01.461Z,29.68
2022-08-16T09:19:37.285Z,29.33
2022-08-16T09:22:20.103Z,29.02
2022-08-16T09:24:54.008Z,29.35
2022-08-16T09:27:56.918Z,29.58
2022-08-16T09:30:32.600Z,29.62
2022-08-16T09:33:03.593Z,30.00
2022-08-16T09:35:37.376Z,29.99
2022-08-16T09:38:08.647Z,30.21
2022-08-16T09:40:42.369Z,28.39
2022-08-16T09:43:37.647Z,28.55
2022-08-16T09:46:02.699Z,29.60
2022-08-16T09:48:44.379Z,29.22
2022-08-16T09:51:19.667Z,29.37
2022-08-16T09:53:53.911Z,29.81
2022-08-16T09:56:31.530Z,29.07
2022-08-16T09:59:03.861Z,30.19
2022-08-16T10:01:38.531Z,30.64
2022-08-16T10:04:31.675Z,30.75
2022-08-16T10:07:01.976Z,29.43
2022-08-16T10:09:45.027Z,30.36
2022-08-16T10:12:42.284Z,29.60
2022-08-16T10:15:15.638Z,30.14
2022-08-16T10:18:01.223Z,30.04
2022-08-16T10:20:34.768Z,30.12
2022-08-16T10:23:07.980Z,30.95
2022-08-16T10:27:22.007Z,30.91
2022-08-16T10:28:39.842Z,30.92
2022-08-16T10:31:16.760Z,30.38
2022-08-16T10:33:46.561Z,29.63
2022-08-16T10:36:38.846Z,30.85
2022-08-16T10:39:05.243Z,30.02
2022-08-16T10:41:36.999Z,29.88
2022-08-16T10:44:09.658Z,29.90
2022-08-16T10:46:41.569Z,30.53
2022-08-16T10:49:13.075Z,30.84
2022-08-16T10:52:01.221Z,30.97
2022-08-16T10:54:32.098Z,30.87
2022-08-16T10:57:04.482Z,29.50
2022-08-16T10:59:44.096Z,29.86
2022-08-16T11:02:57.740Z,31.13
2022-08-16T11:05:14.955Z,31.62
2022-08-16T11:07:53.797Z,30.96
2022-08-16T11:16:26.663Z,31.27
2022-08-16T11:19:04.056Z,31.00
2022-08-16T11:21:37.965Z,30.73
2022-08-16T11:24:42.937Z,30.77
2022-08-16T11:27:19.594Z,31.33
2022-08-16T11:29:52.273Z,31.17
2022-08-16T11:32:32.462Z,31.09
2022-08-16T11:35:13.883Z,30.87
2022-08-16T11:40:44.246Z,29.80
2022-08-16T11:43:16.605Z,30.87
2022-08-16T11:45:53.502Z,30.46
2022-08-16T11:48:24.953Z,30.50
2022-08-16T11:50:54.160Z,30.57
2022-08-16T11:53:23.811Z,30.04
2022-08-16T11:55:54.897Z,30.39
2022-08-16T11:58:25.401Z,31.27
2022-08-16T12:00:57.494Z,31.44
2022-08-16T12:03:35.413Z,30.85
2022-08-16T12:06:11.001Z,30.66
2022-08-16T12:08:55.606Z,30.89
2022-08-16T12:11:25.796Z,29.99
2022-08-16T12:13:55.402Z,30.67
2022-08-16T12:16:23.748Z,30.77
2022-08-16T12:19:01.258Z,30.98
2022-08-16T12:21:36.096Z,30.49
2022-08-16T12:24:17.934Z,29.91
2022-08-16T12:26:46.342Z,29.93
2022-08-16T12:29:14.973Z,30.09
2022-08-16T12:32:01.481Z,29.70
2022-08-16T12:34:34.633Z,29.56
2022-08-16T12:37:08.994Z,29.62
2022-08-16T12:39:47.156Z,29.77
2022-08-16T12:42:20.865Z,29.90
2022-08-16T12:44:49.594Z,29.74
2022-08-16T12:47:36.582Z,29.35
2022-08-16T12:50:10.601Z,29.28
2022-08-16T12:52:52.080Z,29.42
2022-08-16T12:55:22.238Z,29.55
2022-08-16T12:57:58.396Z,29.44
2022-08-16T13:00:33.030Z,29.42
2022-08-16T13:03:04.278Z,29.93
2022-08-16T13:05:47.745Z,30.26
2022-08-16T13:08:27.480Z,29.91
2022-08-16T13:11:00.176Z,30.16
2022-08-16T13:13:29.633Z,30.35
2022-08-16T13:16:05.690Z,30.66
2022-08-16T13:18:39.330Z,30.34
2022-08-16T13:21:10.956Z,30.69
2022-08-16T13:23:43.220Z,30.25
2022-08-16T13:26:12.827Z,30.70
2022-08-16T13:28:47.762Z,30.69
2022-08-16T13:31:16.743Z,30.34
2022-08-16T13:33:46.341Z,30.40
2022-08-16T13:36:32.239Z,30.42
2022-08-16T13:39:05.597Z,30.21
2022-08-16T13:41:34.037Z,30.10
2022-08-16T13:44:04.152Z,29.75
2022-08-16T13:46:37.760Z,29.93
2022-08-16T13:49:07.155Z,30.18
2022-08-16T13:51:37.091Z,30.38
2022-08-16T13:54:08.347Z,30.45
2022-08-16T13:56:39.977Z,30.47
2022-08-16T13:59:14.207Z,30.70
2022-08-16T14:01:55.045Z,30.49
2022-08-16T14:04:27.475Z,30.80
2022-08-16T14:06:58.616Z,30.83
2022-08-16T14:09:28.506Z,30.90
2022-08-16T14:11:57.815Z,30.92
2022-08-16T14:14:29.004Z,30.54
2022-08-16T14:16:59.463Z,30.18
2022-08-16T14:19:29.663Z,29.81
2022-08-16T14:22:14.908Z,30.03
2022-08-16T14:24:49.604Z,30.40
2022-08-16T14:27:21.325Z,30.46
2022-08-16T14:29:52.284Z,30.28
2022-08-16T14:32:33.382Z,30.69
2022-08-16T14:35:06.096Z,30.88
2022-08-16T14:37:38.157Z,31.22
2022-08-16T14:40:09.832Z,31.46
2022-08-16T14:42:38.938Z,30.38
2022-08-16T14:45:09.235Z,30.32
2022-08-16T14:47:38.517Z,30.07
2022-08-16T14:50:09.757Z,30.18
2022-08-16T14:53:03.868Z,30.15
2022-08-16T14:55:36.415Z,29.83
2022-08-16T14:58:06.115Z,29.94
2022-08-16T15:00:38.843Z,30.46
2022-08-16T15:03:10.995Z,30.43
2022-08-16T15:05:41.581Z,30.15
2022-08-16T15:08:11.752Z,30.50
2022-08-16T15:10:44.879Z,30.89
2022-08-16T15:13:16.425Z,30.75
2022-08-16T15:15:56.276Z,31.04
2022-08-16T15:18:28.180Z,31.18
2022-08-16T15:21:02.227Z,31.07
2022-08-16T15:23:33.912Z,30.65
2022-08-16T15:26:08.334Z,30.97
2022-08-16T15:28:38.106Z,31.11
2022-08-16T15:31:09.711Z,30.85
2022-08-16T15:33:44.305Z,31.19
2022-08-16T15:36:21.158Z,30.69
2022-08-16T15:38:57.481Z,30.96
2022-08-16T15:41:58.431Z,30.06
2022-08-16T15:44:44.160Z,29.86
2022-08-16T15:47:19.714Z,30.05
2022-08-16T15:49:54.613Z,30.53
2022-08-16T15:52:29.883Z,30.27
2022-08-16T15:55:12.805Z,30.68
2022-08-16T15:57:52.387Z,30.59
2022-08-16T16:00:22.255Z,30.23
2022-08-16T16:03:03.700Z,30.10
2022-08-16T16:05:32.320Z,30.34
2022-08-16T16:08:11.146Z,30.57
2022-08-16T16:10:44.403Z,30.36
2022-08-16T16:13:23.009Z,30.21
2022-08-16T16:15:54.444Z,29.96
2022-08-16T16:18:24.795Z,29.95
2022-08-16T16:20:57.407Z,29.98
2022-08-16T16:23:29.507Z,30.63
2022-08-16T16:26:00.475Z,30.42
2022-08-16T16:29:08.012Z,30.61
2022-08-16T16:31:26.318Z,30.48
2022-08-16T16:33:58.838Z,30.58
2022-08-16T16:36:29.656Z,30.95
2022-08-16T16:38:58.489Z,30.29
2022-08-16T16:41:30.413Z,30.72
2022-08-16T16:44:02.090Z,30.64
2022-08-16T16:46:42.939Z,30.30
2022-08-16T16:49:14.853Z,30.08
2022-08-16T16:51:49.734Z,30.47
2022-08-16T16:54:28.034Z,30.52
2022-08-16T16:56:58.853Z,30.56
2022-08-16T16:59:28.023Z,30.73
2022-08-16T17:02:39.430Z,30.68
2022-08-16T17:04:47.724Z,30.71
2022-08-16T17:07:16.276Z,30.53
2022-08-16T17:09:45.784Z,30.47
2022-08-16T17:12:22.629Z,30.05
2022-08-16T17:14:54.074Z,30.42
2022-08-16T17:17:23.109Z,30.94
2022-08-16T17:19:51.714Z,30.82
2022-08-16T17:22:22.823Z,31.06
2022-08-16T17:24:53.310Z,30.59
2022-08-16T17:30:20.646Z,30.53
2022-08-16T17:33:01.537Z,30.62
2022-08-16T17:35:36.040Z,30.78
2022-08-16T17:38:08.088Z,30.40
2022-08-16T17:39:26.846Z,30.92
2022-08-16T17:40:49.401Z,30.51
2022-08-16T17:43:31.049Z,30.54
2022-08-16T17:46:00.167Z,30.18
2022-08-16T17:48:31.135Z,30.39
2022-08-16T17:51:00.105Z,30.36
2022-08-16T17:53:28.601Z,30.16
2022-08-16T17:55:57.076Z,30.02
2022-08-16T17:58:27.264Z,30.13
2022-08-16T18:00:59.763Z,30.19
2022-08-16T18:04:02.414Z,29.60
2022-08-16T18:06:23.981Z,29.77
2022-08-16T18:09:00.340Z,29.81
2022-08-16T18:11:32.812Z,29.93
2022-08-16T18:14:02.902Z,29.30
2022-08-16T18:16:31.283Z,29.63
2022-08-16T18:18:59.972Z,29.70
2022-08-16T18:21:46.313Z,29.73
2022-08-16T18:24:15.985Z,29.77
2022-08-16T18:26:44.372Z,29.76
2022-08-16T18:29:14.068Z,29.78
2022-08-16T18:31:42.446Z,29.53
2022-08-16T18:34:10.960Z,29.29
2022-08-16T18:36:39.452Z,29.40
2022-08-16T18:39:07.763Z,29.50
2022-08-16T18:41:38.021Z,29.48
2022-08-16T18:44:26.668Z,29.52
2022-08-16T18:46:57.549Z,29.45
2022-08-16T18:49:25.887Z,29.43
2022-08-16T18:51:58.565Z,29.36
2022-08-16T18:54:28.214Z,29.34
2022-08-16T18:56:58.344Z,29.20
2022-08-16T18:59:29.333Z,29.22
2022-08-16T19:02:05.009Z,29.19
2022-08-16T19:04:50.405Z,29.16
2022-08-16T19:07:30.920Z,29.09
2022-08-16T19:10:01.609Z,29.06
2022-08-16T19:12:38.603Z,29.04
2022-08-16T19:15:15.717Z,28.98
2022-08-16T19:17:46.225Z,28.92
2022-08-16T19:20:17.306Z,28.90
2022-08-16T19:23:05.569Z,28.85
2022-08-16T19:25:47.109Z,28.80
2022-08-16T19:28:49.099Z,28.67
2022-08-16T19:31:15.442Z,28.61
2022-08-16T19:33:53.860Z,28.57
2022-08-16T19:36:31.662Z,28.53
2022-08-16T19:39:04.755Z,28.46
2022-08-16T19:41:36.343Z,28.40
2022-08-16T19:44:07.359Z,28.36
2022-08-16T19:46:36.106Z,28.32
2022-08-16T19:49:07.607Z,28.27
2022-08-16T19:51:35.963Z,28.24
2022-08-16T19:54:06.530Z,28.18
2022-08-16T19:56:34.842Z,28.16
2022-08-16T19:59:20.964Z,28.14
2022-08-16T20:01:52.584Z,28.10
2022-08-16T20:04:24.629Z,28.03
2022-08-16T20:06:55.619Z,28.03
2022-08-16T20:09:25.224Z,28.00
2022-08-16T20:11:54.354Z,27.98
2022-08-16T20:14:26.283Z,27.97
2022-08-16T20:16:57.299Z,27.98
2022-08-16T20:19:29.178Z,27.99
2022-08-16T20:22:03.259Z,27.99
2022-08-16T20:24:35.555Z,27.92
2022-08-16T20:27:06.139Z,27.91
2022-08-16T20:29:35.152Z,27.86
2022-08-16T20:32:04.140Z,27.89
2022-08-16T20:34:33.883Z,27.83
2022-08-16T20:37:02.433Z,27.83
2022-08-16T20:39:30.783Z,27.81
2022-08-16T20:41:59.319Z,27.81
2022-08-16T20:44:27.672Z,27.79
2022-08-16T20:46:55.987Z,27.74
2022-08-16T20:49:24.325Z,27.72
2022-08-16T20:51:59.113Z,27.71
2022-08-16T20:54:29.466Z,27.71
2022-08-16T20:56:57.805Z,27.68
2022-08-16T20:59:26.334Z,27.65
2022-08-16T21:01:54.885Z,27.65
2022-08-16T21:04:26.459Z,27.61
2022-08-16T21:06:58.463Z,27.60
2022-08-16T21:09:31.471Z,27.59
2022-08-16T21:12:02.683Z,27.58
2022-08-16T21:14:34.243Z,27.56
2022-08-16T21:17:03.246Z,27.54
2022-08-16T21:19:31.947Z,27.51
2022-08-16T21:22:13.252Z,27.50
2022-08-16T21:24:41.976Z,27.47
2022-08-16T21:27:11.492Z,27.46
2022-08-16T21:29:43.148Z,27.43
2022-08-16T21:32:15.143Z,27.41
2022-08-16T21:34:44.002Z,27.37
2022-08-16T21:37:15.657Z,27.35
2022-08-16T21:39:44.667Z,27.33
2022-08-16T21:42:16.440Z,27.32
2022-08-16T21:44:45.064Z,27.31
2022-08-16T21:47:13.510Z,27.28
2022-08-16T21:49:42.003Z,27.28
2022-08-16T21:52:25.943Z,27.24
2022-08-16T21:54:58.011Z,27.24
2022-08-16T21:57:26.560Z,27.20
2022-08-16T22:00:06.613Z,27.19
2022-08-16T22:02:35.873Z,27.14
2022-08-16T22:05:08.130Z,27.14
2022-08-16T22:07:36.437Z,27.17
2022-08-16T22:11:04.504Z,27.14
2022-08-16T22:12:57.021Z,26.90
2022-08-16T22:15:26.226Z,27.02
2022-08-16T22:17:57.621Z,27.03
2022-08-16T22:20:28.188Z,27.02
2022-08-16T22:23:08.059Z,27.00
2022-08-16T22:25:39.789Z,26.96
2022-08-16T22:28:08.123Z,26.92
2022-08-16T22:30:36.682Z,26.90
2022-08-16T22:33:10.314Z,26.87
2022-08-16T22:35:45.044Z,26.83
2022-08-16T22:38:54.277Z,26.83
2022-08-16T22:41:05.229Z,26.82
2022-08-16T22:43:34.041Z,26.85
2022-08-16T22:46:02.434Z,26.83
2022-08-16T22:48:30.741Z,26.84
2022-08-16T22:51:07.956Z,26.82
2022-08-16T22:53:37.414Z,26.76
2022-08-16T22:56:08.221Z,26.71
2022-08-16T22:58:37.364Z,26.64
2022-08-16T23:01:06.497Z,26.62
2022-08-16T23:03:35.357Z,26.54
2022-08-16T23:06:03.831Z,26.52
2022-08-16T23:08:39.315Z,26.49
2022-08-16T23:11:13.331Z,26.48
2022-08-16T23:13:53.046Z,26.45
2022-08-16T23:16:33.185Z,26.40
2022-08-16T23:19:05.304Z,26.32
2022-08-16T23:21:34.140Z,26.34
2022-08-16T23:24:03.245Z,26.34
2022-08-16T23:26:44.354Z,26.31
2022-08-16T23:29:25.289Z,26.24
2022-08-16T23:31:59.623Z,26.24
2022-08-16T23:34:29.792Z,26.25
2022-08-16T23:36:58.233Z,26.20
2022-08-16T23:39:27.064Z,26.06
2022-08-16T23:41:56.873Z,26.14
2022-08-16T23:44:55.415Z,26.17
2022-08-16T23:47:13.851Z,26.02
2022-08-16T23:49:58.642Z,26.00
2022-08-16T23:52:53.208Z,25.99
2022-08-16T23:55:19.634Z,25.97
2022-08-16T23:57:49.941Z,26.04
